sensor_id;sensor_type;location;lat;lon;timestamp;temperature;humidity
7232;DHT22;3657;49.630;11.018;2023-02-01T00:00:08;3.20;99.90
7232;DHT22;3657;49.630;11.018;2023-02-01T00:02:35;3.20;99.90
7232;DHT22;3657;49.630;11.018;2023-02-01T00:05:06;3.20;99.90
7232;DHT22;3657;49.630;11.018;2023-02-01T00:07:32;3.20;99.90
7232;DHT22;3657;49.630;11.018;2023-02-01T00:09:59;3.20;99.90
7232;DHT22;3657;49.630;11.018;2023-02-01T00:12:26;3.20;99.90
7232;DHT22;3657;49.630;11.018;2023-02-01T00:14:54;3.20;99.90
7232;DHT22;3657;49.630;11.018;2023-02-01T00:17:20;3.20;99.90
7232;DHT22;3657;49.630;11.018;2023-02-01T00:19:47;3.20;99.90
7232;DHT22;3657;49.630;11.018;2023-02-01T00:22:14;3.20;99.90
7232;DHT22;3657;49.630;11.018;2023-02-01T00:24:40;3.20;99.90
7232;DHT22;3657;49.630;11.018;2023-02-01T00:27:07;3.20;99.90
7232;DHT22;3657;49.630;11.018;2023-02-01T00:29:34;3.20;99.90
7232;DHT22;3657;49.630;11.018;2023-02-01T00:32:02;3.20;99.90
7232;DHT22;3657;49.630;11.018;2023-02-01T00:34:28;3.20;99.90
7232;DHT22;3657;49.630;11.018;2023-02-01T00:36:55;3.20;99.90
7232;DHT22;3657;49.630;11.018;2023-02-01T00:39:22;3.20;99.90
7232;DHT22;3657;49.630;11.018;2023-02-01T00:41:48;3.20;99.90
7232;DHT22;3657;49.630;11.018;2023-02-01T00:44:15;3.30;99.90
7232;DHT22;3657;49.630;11.018;2023-02-01T00:46:42;3.20;99.90
7232;DHT22;3657;49.630;11.018;2023-02-01T00:49:10;3.20;99.90
7232;DHT22;3657;49.630;11.018;2023-02-01T00:51:36;3.20;99.90
7232;DHT22;3657;49.630;11.018;2023-02-01T00:54:03;3.20;99.90
7232;DHT22;3657;49.630;11.018;2023-02-01T00:56:30;3.30;99.90
7232;DHT22;3657;49.630;11.018;2023-02-01T00:58:57;3.30;99.90
7232;DHT22;3657;49.630;11.018;2023-02-01T01:01:24;3.20;99.90
7232;DHT22;3657;49.630;11.018;2023-02-01T01:03:54;3.30;99.90
7232;DHT22;3657;49.630;11.018;2023-02-01T01:06:24;3.30;99.90
7232;DHT22;3657;49.630;11.018;2023-02-01T01:08:51;3.30;99.90
7232;DHT22;3657;49.630;11.018;2023-02-01T01:11:21;3.30;99.90
7232;DHT22;3657;49.630;11.018;2023-02-01T01:13:49;3.30;99.90
7232;DHT22;3657;49.630;11.018;2023-02-01T01:16:17;3.30;99.90
7232;DHT22;3657;49.630;11.018;2023-02-01T01:18:44;3.30;99.90
7232;DHT22;3657;49.630;11.018;2023-02-01T01:21:12;3.30;99.90
7232;DHT22;3657;49.630;11.018;2023-02-01T01:23:42;3.30;99.90
7232;DHT22;3657;49.630;11.018;2023-02-01T01:26:10;3.30;99.90
7232;DHT22;3657;49.630;11.018;2023-02-01T01:28:37;3.30;99.90
7232;DHT22;3657;49.630;11.018;2023-02-01T01:31:03;3.30;99.90
7232;DHT22;3657;49.630;11.018;2023-02-01T01:33:30;3.30;99.90
7232;DHT22;3657;49.630;11.018;2023-02-01T01:35:57;3.30;99.90
7232;DHT22;3657;49.630;11.018;2023-02-01T01:38:23;3.30;99.90
7232;DHT22;3657;49.630;11.018;2023-02-01T01:40:51;3.30;99.90
7232;DHT22;3657;49.630;11.018;2023-02-01T01:43:19;3.30;99.90
7232;DHT22;3657;49.630;11.018;2023-02-01T01:45:48;3.30;99.90
7232;DHT22;3657;49.630;11.018;2023-02-01T01:48:20;3.30;99.90
7232;DHT22;3657;49.630;11.018;2023-02-01T01:50:49;3.30;99.90
7232;DHT22;3657;49.630;11.018;2023-02-01T01:53:19;3.30;99.90
7232;DHT22;3657;49.630;11.018;2023-02-01T01:55:47;3.30;99.90
7232;DHT22;3657;49.630;11.018;2023-02-01T01:58:19;3.30;99.90
7232;DHT22;3657;49.630;11.018;2023-02-01T02:00:47;3.30;99.90
7232;DHT22;3657;49.630;11.018;2023-02-01T02:03:16;3.30;99.90
7232;DHT22;3657;49.630;11.018;2023-02-01T02:05:44;3.30;99.90
7232;DHT22;3657;49.630;11.018;2023-02-01T02:08:12;3.30;99.90
7232;DHT22;3657;49.630;11.018;2023-02-01T02:10:39;3.30;99.90
7232;DHT22;3657;49.630;11.018;2023-02-01T02:13:25;3.30;99.90
7232;DHT22;3657;49.630;11.018;2023-02-01T02:16:04;3.30;99.90
7232;DHT22;3657;49.630;11.018;2023-02-01T02:18:36;3.40;99.90
7232;DHT22;3657;49.630;11.018;2023-02-01T02:21:27;3.30;99.90
7232;DHT22;3657;49.630;11.018;2023-02-01T02:24:26;3.30;99.90
7232;DHT22;3657;49.630;11.018;2023-02-01T02:27:16;3.30;99.90
7232;DHT22;3657;49.630;11.018;2023-02-01T02:33:27;3.30;99.90
7232;DHT22;3657;49.630;11.018;2023-02-01T02:36:07;3.30;99.90
7232;DHT22;3657;49.630;11.018;2023-02-01T02:38:41;3.40;99.90
7232;DHT22;3657;49.630;11.018;2023-02-01T02:41:16;3.40;99.90
7232;DHT22;3657;49.630;11.018;2023-02-01T02:44:00;3.40;99.90
7232;DHT22;3657;49.630;11.018;2023-02-01T02:46:49;3.30;99.90
7232;DHT22;3657;49.630;11.018;2023-02-01T02:49:39;3.30;99.90
7232;DHT22;3657;49.630;11.018;2023-02-01T02:52:09;3.40;99.90
7232;DHT22;3657;49.630;11.018;2023-02-01T02:54:56;3.40;99.90
7232;DHT22;3657;49.630;11.018;2023-02-01T02:57:33;3.30;99.90
7232;DHT22;3657;49.630;11.018;2023-02-01T03:00:20;3.40;99.90
7232;DHT22;3657;49.630;11.018;2023-02-01T03:03:05;3.30;99.90
7232;DHT22;3657;49.630;11.018;2023-02-01T03:05:52;3.40;99.90
7232;DHT22;3657;49.630;11.018;2023-02-01T03:08:20;3.40;99.90
7232;DHT22;3657;49.630;11.018;2023-02-01T03:10:58;3.40;99.90
7232;DHT22;3657;49.630;11.018;2023-02-01T03:13:31;3.40;99.90
7232;DHT22;3657;49.630;11.018;2023-02-01T03:16:02;3.40;99.90
7232;DHT22;3657;49.630;11.018;2023-02-01T03:18:35;3.40;99.90
7232;DHT22;3657;49.630;11.018;2023-02-01T03:21:08;3.40;99.90
7232;DHT22;3657;49.630;11.018;2023-02-01T03:23:37;3.40;99.90
7232;DHT22;3657;49.630;11.018;2023-02-01T03:26:07;3.40;99.90
7232;DHT22;3657;49.630;11.018;2023-02-01T03:28:36;3.40;99.90
7232;DHT22;3657;49.630;11.018;2023-02-01T03:31:05;3.40;99.90
7232;DHT22;3657;49.630;11.018;2023-02-01T03:33:32;3.40;99.90
7232;DHT22;3657;49.630;11.018;2023-02-01T03:36:07;3.40;99.90
7232;DHT22;3657;49.630;11.018;2023-02-01T03:38:39;3.40;99.90
7232;DHT22;3657;49.630;11.018;2023-02-01T03:41:11;3.40;99.90
7232;DHT22;3657;49.630;11.018;2023-02-01T03:43:45;3.40;99.90
7232;DHT22;3657;49.630;11.018;2023-02-01T03:46:18;3.30;99.90
7232;DHT22;3657;49.630;11.018;2023-02-01T03:48:48;3.40;99.90
7232;DHT22;3657;49.630;11.018;2023-02-01T03:51:19;3.40;99.90
7232;DHT22;3657;49.630;11.018;2023-02-01T03:53:47;3.30;99.90
7232;DHT22;3657;49.630;11.018;2023-02-01T03:56:15;3.40;99.90
7232;DHT22;3657;49.630;11.018;2023-02-01T03:58:44;3.30;99.90
7232;DHT22;3657;49.630;11.018;2023-02-01T04:01:24;3.40;99.90
7232;DHT22;3657;49.630;11.018;2023-02-01T04:03:51;3.40;99.90
7232;DHT22;3657;49.630;11.018;2023-02-01T04:06:19;3.40;99.90
7232;DHT22;3657;49.630;11.018;2023-02-01T04:08:45;3.40;99.90
7232;DHT22;3657;49.630;11.018;2023-02-01T04:11:12;3.40;99.90
7232;DHT22;3657;49.630;11.018;2023-02-01T04:13:39;3.40;99.90
7232;DHT22;3657;49.630;11.018;2023-02-01T04:16:06;3.30;99.90
7232;DHT22;3657;49.630;11.018;2023-02-01T04:18:32;3.40;99.90
7232;DHT22;3657;49.630;11.018;2023-02-01T04:21:00;3.40;99.90
7232;DHT22;3657;49.630;11.018;2023-02-01T04:23:28;3.30;99.90
7232;DHT22;3657;49.630;11.018;2023-02-01T04:25:59;3.40;99.90
7232;DHT22;3657;49.630;11.018;2023-02-01T04:28:26;3.30;99.90
7232;DHT22;3657;49.630;11.018;2023-02-01T04:30:53;3.40;99.90
7232;DHT22;3657;49.630;11.018;2023-02-01T04:33:19;3.40;99.90
7232;DHT22;3657;49.630;11.018;2023-02-01T04:35:47;3.40;99.90
7232;DHT22;3657;49.630;11.018;2023-02-01T04:38:13;3.40;99.90
7232;DHT22;3657;49.630;11.018;2023-02-01T04:40:41;3.30;99.90
7232;DHT22;3657;49.630;11.018;2023-02-01T04:43:08;3.40;99.90
7232;DHT22;3657;49.630;11.018;2023-02-01T04:45:35;3.40;99.90
7232;DHT22;3657;49.630;11.018;2023-02-01T04:48:01;3.40;99.90
7232;DHT22;3657;49.630;11.018;2023-02-01T04:50:28;3.40;99.90
7232;DHT22;3657;49.630;11.018;2023-02-01T04:52:55;3.30;99.90
7232;DHT22;3657;49.630;11.018;2023-02-01T04:55:21;3.30;99.90
7232;DHT22;3657;49.630;11.018;2023-02-01T04:57:49;3.30;99.90
7232;DHT22;3657;49.630;11.018;2023-02-01T05:00:17;3.30;99.90
7232;DHT22;3657;49.630;11.018;2023-02-01T05:02:43;3.30;99.90
7232;DHT22;3657;49.630;11.018;2023-02-01T05:05:10;3.30;99.90
7232;DHT22;3657;49.630;11.018;2023-02-01T05:07:37;3.30;99.90
7232;DHT22;3657;49.630;11.018;2023-02-01T05:10:04;3.30;99.90
7232;DHT22;3657;49.630;11.018;2023-02-01T05:12:31;3.30;99.90
7232;DHT22;3657;49.630;11.018;2023-02-01T05:15:16;3.30;99.90
7232;DHT22;3657;49.630;11.018;2023-02-01T05:17:43;3.40;99.90
7232;DHT22;3657;49.630;11.018;2023-02-01T05:20:10;3.30;99.90
7232;DHT22;3657;49.630;11.018;2023-02-01T05:22:37;3.40;99.90
7232;DHT22;3657;49.630;11.018;2023-02-01T05:25:04;3.40;99.90
7232;DHT22;3657;49.630;11.018;2023-02-01T05:27:31;3.30;99.90
7232;DHT22;3657;49.630;11.018;2023-02-01T05:29:58;3.40;99.90
7232;DHT22;3657;49.630;11.018;2023-02-01T05:32:26;3.30;99.90
7232;DHT22;3657;49.630;11.018;2023-02-01T05:34:52;3.40;99.90
7232;DHT22;3657;49.630;11.018;2023-02-01T05:37:19;3.30;99.90
7232;DHT22;3657;49.630;11.018;2023-02-01T05:39:46;3.40;99.90
7232;DHT22;3657;49.630;11.018;2023-02-01T05:42:12;3.30;99.90
7232;DHT22;3657;49.630;11.018;2023-02-01T05:44:39;3.30;99.90
7232;DHT22;3657;49.630;11.018;2023-02-01T05:47:06;3.40;99.90
7232;DHT22;3657;49.630;11.018;2023-02-01T05:49:34;3.40;99.90
7232;DHT22;3657;49.630;11.018;2023-02-01T05:52:01;3.30;99.90
7232;DHT22;3657;49.630;11.018;2023-02-01T05:54:27;3.30;99.90
7232;DHT22;3657;49.630;11.018;2023-02-01T05:56:54;3.30;99.90
7232;DHT22;3657;49.630;11.018;2023-02-01T05:59:21;3.30;99.90
7232;DHT22;3657;49.630;11.018;2023-02-01T06:01:48;3.30;99.90
7232;DHT22;3657;49.630;11.018;2023-02-01T06:04:14;3.30;99.90
7232;DHT22;3657;49.630;11.018;2023-02-01T06:06:42;3.30;99.90
7232;DHT22;3657;49.630;11.018;2023-02-01T06:09:09;3.30;99.90
7232;DHT22;3657;49.630;11.018;2023-02-01T06:11:36;3.30;99.90
7232;DHT22;3657;49.630;11.018;2023-02-01T06:14:02;3.30;99.90
7232;DHT22;3657;49.630;11.018;2023-02-01T06:16:29;3.30;99.90
7232;DHT22;3657;49.630;11.018;2023-02-01T06:18:57;3.30;99.90
7232;DHT22;3657;49.630;11.018;2023-02-01T06:21:23;3.30;99.90
7232;DHT22;3657;49.630;11.018;2023-02-01T06:23:52;3.20;99.90
7232;DHT22;3657;49.630;11.018;2023-02-01T06:26:18;3.20;99.90
7232;DHT22;3657;49.630;11.018;2023-02-01T06:28:45;3.20;99.90
7232;DHT22;3657;49.630;11.018;2023-02-01T06:31:12;3.30;99.90
7232;DHT22;3657;49.630;11.018;2023-02-01T06:33:39;3.30;99.90
7232;DHT22;3657;49.630;11.018;2023-02-01T06:36:07;3.30;99.90
7232;DHT22;3657;49.630;11.018;2023-02-01T06:38:35;3.30;99.90
7232;DHT22;3657;49.630;11.018;2023-02-01T06:41:03;3.30;99.90
7232;DHT22;3657;49.630;11.018;2023-02-01T06:43:30;3.20;99.90
7232;DHT22;3657;49.630;11.018;2023-02-01T06:45:59;3.20;99.90
7232;DHT22;3657;49.630;11.018;2023-02-01T06:48:26;3.20;99.90
7232;DHT22;3657;49.630;11.018;2023-02-01T06:50:53;3.20;99.90
7232;DHT22;3657;49.630;11.018;2023-02-01T06:53:20;3.20;99.90
7232;DHT22;3657;49.630;11.018;2023-02-01T06:55:53;3.20;99.90
7232;DHT22;3657;49.630;11.018;2023-02-01T06:58:21;3.20;99.90
7232;DHT22;3657;49.630;11.018;2023-02-01T07:00:48;3.20;99.90
7232;DHT22;3657;49.630;11.018;2023-02-01T07:03:15;3.20;99.90
7232;DHT22;3657;49.630;11.018;2023-02-01T07:05:42;3.20;99.90
7232;DHT22;3657;49.630;11.018;2023-02-01T07:08:09;3.20;99.90
7232;DHT22;3657;49.630;11.018;2023-02-01T07:10:36;3.20;99.90
7232;DHT22;3657;49.630;11.018;2023-02-01T07:13:03;3.20;99.90
7232;DHT22;3657;49.630;11.018;2023-02-01T07:15:31;3.20;99.90
7232;DHT22;3657;49.630;11.018;2023-02-01T07:17:58;3.20;99.90
7232;DHT22;3657;49.630;11.018;2023-02-01T07:20:25;3.20;99.90
7232;DHT22;3657;49.630;11.018;2023-02-01T07:22:55;3.20;99.90
7232;DHT22;3657;49.630;11.018;2023-02-01T07:25:22;3.20;99.90
7232;DHT22;3657;49.630;11.018;2023-02-01T07:27:48;3.20;99.90
7232;DHT22;3657;49.630;11.018;2023-02-01T07:30:15;3.20;99.90
7232;DHT22;3657;49.630;11.018;2023-02-01T07:32:43;3.20;99.90
7232;DHT22;3657;49.630;11.018;2023-02-01T07:35:10;3.20;99.90
7232;DHT22;3657;49.630;11.018;2023-02-01T07:37:37;3.20;99.90
7232;DHT22;3657;49.630;11.018;2023-02-01T07:40:04;3.20;99.90
7232;DHT22;3657;49.630;11.018;2023-02-01T07:42:31;3.20;99.90
7232;DHT22;3657;49.630;11.018;2023-02-01T07:44:58;3.20;99.90
7232;DHT22;3657;49.630;11.018;2023-02-01T07:47:25;3.30;99.90
7232;DHT22;3657;49.630;11.018;2023-02-01T07:49:53;3.30;99.90
7232;DHT22;3657;49.630;11.018;2023-02-01T07:52:19;3.30;99.90
7232;DHT22;3657;49.630;11.018;2023-02-01T07:54:46;3.30;99.90
7232;DHT22;3657;49.630;11.018;2023-02-01T07:57:13;3.30;99.90
7232;DHT22;3657;49.630;11.018;2023-02-01T07:59:39;3.30;99.90
7232;DHT22;3657;49.630;11.018;2023-02-01T08:02:26;3.30;99.90
7232;DHT22;3657;49.630;11.018;2023-02-01T08:04:53;3.30;99.90
7232;DHT22;3657;49.630;11.018;2023-02-01T08:07:20;3.30;99.90
7232;DHT22;3657;49.630;11.018;2023-02-01T08:09:47;3.40;99.90
7232;DHT22;3657;49.630;11.018;2023-02-01T08:12:14;3.50;99.90
7232;DHT22;3657;49.630;11.018;2023-02-01T08:14:40;3.50;99.90
7232;DHT22;3657;49.630;11.018;2023-02-01T08:17:07;3.50;99.90
7232;DHT22;3657;49.630;11.018;2023-02-01T08:19:34;3.50;99.90
7232;DHT22;3657;49.630;11.018;2023-02-01T08:22:02;3.50;99.90
7232;DHT22;3657;49.630;11.018;2023-02-01T08:24:32;3.50;99.90
7232;DHT22;3657;49.630;11.018;2023-02-01T08:27:00;3.60;99.90
7232;DHT22;3657;49.630;11.018;2023-02-01T08:29:27;3.60;99.90
7232;DHT22;3657;49.630;11.018;2023-02-01T08:31:53;3.60;99.90
7232;DHT22;3657;49.630;11.018;2023-02-01T08:34:20;3.60;99.90
7232;DHT22;3657;49.630;11.018;2023-02-01T08:36:47;3.50;99.90
7232;DHT22;3657;49.630;11.018;2023-02-01T08:39:15;3.60;99.90
7232;DHT22;3657;49.630;11.018;2023-02-01T08:41:42;3.60;99.90
7232;DHT22;3657;49.630;11.018;2023-02-01T08:44:28;3.60;99.90
7232;DHT22;3657;49.630;11.018;2023-02-01T08:46:55;3.60;99.90
7232;DHT22;3657;49.630;11.018;2023-02-01T08:49:22;3.70;99.90
7232;DHT22;3657;49.630;11.018;2023-02-01T08:51:48;3.70;99.90
7232;DHT22;3657;49.630;11.018;2023-02-01T08:54:16;3.70;99.90
7232;DHT22;3657;49.630;11.018;2023-02-01T08:56:43;3.70;99.90
7232;DHT22;3657;49.630;11.018;2023-02-01T08:59:10;3.70;99.90
7232;DHT22;3657;49.630;11.018;2023-02-01T09:01:36;3.70;99.90
7232;DHT22;3657;49.630;11.018;2023-02-01T09:04:03;3.80;99.90
7232;DHT22;3657;49.630;11.018;2023-02-01T09:06:30;3.80;99.90
7232;DHT22;3657;49.630;11.018;2023-02-01T09:08:56;3.80;99.90
7232;DHT22;3657;49.630;11.018;2023-02-01T09:11:24;3.90;99.90
7232;DHT22;3657;49.630;11.018;2023-02-01T09:13:52;3.90;99.90
7232;DHT22;3657;49.630;11.018;2023-02-01T09:16:18;4.00;99.90
7232;DHT22;3657;49.630;11.018;2023-02-01T09:18:45;3.90;99.90
7232;DHT22;3657;49.630;11.018;2023-02-01T09:21:12;4.00;99.90
7232;DHT22;3657;49.630;11.018;2023-02-01T09:23:38;3.90;99.90
7232;DHT22;3657;49.630;11.018;2023-02-01T09:26:05;3.90;99.90
7232;DHT22;3657;49.630;11.018;2023-02-01T09:28:33;4.00;99.90
7232;DHT22;3657;49.630;11.018;2023-02-01T09:31:00;3.90;99.90
7232;DHT22;3657;49.630;11.018;2023-02-01T09:33:28;4.00;99.90
7232;DHT22;3657;49.630;11.018;2023-02-01T09:35:57;4.00;99.90
7232;DHT22;3657;49.630;11.018;2023-02-01T09:38:24;4.00;99.90
7232;DHT22;3657;49.630;11.018;2023-02-01T09:40:53;4.00;99.90
7232;DHT22;3657;49.630;11.018;2023-02-01T09:43:29;4.00;99.90
7232;DHT22;3657;49.630;11.018;2023-02-01T09:46:12;4.10;99.90
7232;DHT22;3657;49.630;11.018;2023-02-01T09:48:45;4.10;99.90
7232;DHT22;3657;49.630;11.018;2023-02-01T09:51:16;4.10;99.90
7232;DHT22;3657;49.630;11.018;2023-02-01T09:53:51;4.10;99.90
7232;DHT22;3657;49.630;11.018;2023-02-01T09:56:24;4.30;99.90
7232;DHT22;3657;49.630;11.018;2023-02-01T09:59:01;4.50;99.90
7232;DHT22;3657;49.630;11.018;2023-02-01T10:01:31;4.70;99.90
7232;DHT22;3657;49.630;11.018;2023-02-01T10:04:02;4.60;99.90
7232;DHT22;3657;49.630;11.018;2023-02-01T10:06:36;4.60;99.90
7232;DHT22;3657;49.630;11.018;2023-02-01T10:09:24;4.50;99.90
7232;DHT22;3657;49.630;11.018;2023-02-01T10:12:13;4.50;99.90
7232;DHT22;3657;49.630;11.018;2023-02-01T10:14:57;4.40;99.90
7232;DHT22;3657;49.630;11.018;2023-02-01T10:17:37;4.40;99.90
7232;DHT22;3657;49.630;11.018;2023-02-01T10:20:13;4.40;99.90
7232;DHT22;3657;49.630;11.018;2023-02-01T10:22:51;4.40;99.90
7232;DHT22;3657;49.630;11.018;2023-02-01T10:25:25;4.40;99.90
7232;DHT22;3657;49.630;11.018;2023-02-01T10:27:52;4.40;99.90
7232;DHT22;3657;49.630;11.018;2023-02-01T10:30:22;4.50;99.90
7232;DHT22;3657;49.630;11.018;2023-02-01T10:32:55;4.50;99.90
7232;DHT22;3657;49.630;11.018;2023-02-01T10:35:28;4.50;99.90
7232;DHT22;3657;49.630;11.018;2023-02-01T10:38:00;4.50;99.90
7232;DHT22;3657;49.630;11.018;2023-02-01T10:40:28;4.50;99.90
7232;DHT22;3657;49.630;11.018;2023-02-01T10:42:58;4.50;99.90
7232;DHT22;3657;49.630;11.018;2023-02-01T10:45:28;4.60;99.90
7232;DHT22;3657;49.630;11.018;2023-02-01T10:47:57;4.60;99.90
7232;DHT22;3657;49.630;11.018;2023-02-01T10:50:33;4.70;99.90
7232;DHT22;3657;49.630;11.018;2023-02-01T10:53:05;4.70;99.90
7232;DHT22;3657;49.630;11.018;2023-02-01T10:55:37;4.70;99.90
7232;DHT22;3657;49.630;11.018;2023-02-01T10:58:05;4.60;99.90
7232;DHT22;3657;49.630;11.018;2023-02-01T11:00:47;4.70;99.90
7232;DHT22;3657;49.630;11.018;2023-02-01T11:03:34;4.70;99.90
7232;DHT22;3657;49.630;11.018;2023-02-01T11:06:04;4.70;99.90
7232;DHT22;3657;49.630;11.018;2023-02-01T11:08:42;4.70;99.90
7232;DHT22;3657;49.630;11.018;2023-02-01T11:11:09;4.70;99.90
7232;DHT22;3657;49.630;11.018;2023-02-01T11:13:38;4.80;99.90
7232;DHT22;3657;49.630;11.018;2023-02-01T11:16:06;4.80;99.90
7232;DHT22;3657;49.630;11.018;2023-02-01T11:18:38;4.80;99.90
7232;DHT22;3657;49.630;11.018;2023-02-01T11:21:06;4.80;99.90
7232;DHT22;3657;49.630;11.018;2023-02-01T11:23:33;4.90;99.90
7232;DHT22;3657;49.630;11.018;2023-02-01T11:26:11;4.80;99.90
7232;DHT22;3657;49.630;11.018;2023-02-01T11:28:39;4.90;99.90
7232;DHT22;3657;49.630;11.018;2023-02-01T11:31:09;4.90;99.90
7232;DHT22;3657;49.630;11.018;2023-02-01T11:33:47;4.90;99.90
7232;DHT22;3657;49.630;11.018;2023-02-01T11:36:17;4.90;99.90
7232;DHT22;3657;49.630;11.018;2023-02-01T11:38:47;4.90;99.90
7232;DHT22;3657;49.630;11.018;2023-02-01T11:41:22;4.90;99.90
7232;DHT22;3657;49.630;11.018;2023-02-01T11:43:53;4.90;99.90
7232;DHT22;3657;49.630;11.018;2023-02-01T11:46:23;4.90;99.90
7232;DHT22;3657;49.630;11.018;2023-02-01T11:48:53;5.00;99.90
7232;DHT22;3657;49.630;11.018;2023-02-01T11:51:30;5.00;99.90
7232;DHT22;3657;49.630;11.018;2023-02-01T11:54:29;5.00;99.90
7232;DHT22;3657;49.630;11.018;2023-02-01T11:57:15;5.00;99.90
7232;DHT22;3657;49.630;11.018;2023-02-01T11:59:58;5.00;99.90
7232;DHT22;3657;49.630;11.018;2023-02-01T12:02:45;5.00;99.90
7232;DHT22;3657;49.630;11.018;2023-02-01T12:05:32;5.00;99.90
7232;DHT22;3657;49.630;11.018;2023-02-01T12:08:25;5.10;99.90
7232;DHT22;3657;49.630;11.018;2023-02-01T12:11:08;5.10;99.90
7232;DHT22;3657;49.630;11.018;2023-02-01T12:13:45;5.10;99.90
7232;DHT22;3657;49.630;11.018;2023-02-01T12:16:22;5.10;99.90
7232;DHT22;3657;49.630;11.018;2023-02-01T12:19:14;5.10;99.90
7232;DHT22;3657;49.630;11.018;2023-02-01T12:22:06;5.10;99.90
7232;DHT22;3657;49.630;11.018;2023-02-01T12:25:03;5.10;99.90
7232;DHT22;3657;49.630;11.018;2023-02-01T12:27:49;5.10;99.90
7232;DHT22;3657;49.630;11.018;2023-02-01T12:30:49;5.10;99.90
7232;DHT22;3657;49.630;11.018;2023-02-01T12:33:29;5.10;99.90
7232;DHT22;3657;49.630;11.018;2023-02-01T12:36:10;5.10;99.90
7232;DHT22;3657;49.630;11.018;2023-02-01T12:38:49;5.10;99.90
7232;DHT22;3657;49.630;11.018;2023-02-01T12:44:12;5.20;99.90
7232;DHT22;3657;49.630;11.018;2023-02-01T12:46:45;5.20;99.90
7232;DHT22;3657;49.630;11.018;2023-02-01T12:49:17;5.20;99.90
7232;DHT22;3657;49.630;11.018;2023-02-01T12:51:48;5.20;99.90
7232;DHT22;3657;49.630;11.018;2023-02-01T12:54:20;5.10;99.90
7232;DHT22;3657;49.630;11.018;2023-02-01T12:56:51;5.10;99.90
7232;DHT22;3657;49.630;11.018;2023-02-01T12:59:25;5.00;99.90
7232;DHT22;3657;49.630;11.018;2023-02-01T13:01:56;5.00;99.90
7232;DHT22;3657;49.630;11.018;2023-02-01T13:04:29;5.00;99.90
7232;DHT22;3657;49.630;11.018;2023-02-01T13:07:03;5.00;99.90
7232;DHT22;3657;49.630;11.018;2023-02-01T13:09:37;5.00;99.90
7232;DHT22;3657;49.630;11.018;2023-02-01T13:12:11;5.00;99.90
7232;DHT22;3657;49.630;11.018;2023-02-01T13:14:42;5.00;99.90
7232;DHT22;3657;49.630;11.018;2023-02-01T13:17:14;5.00;99.90
7232;DHT22;3657;49.630;11.018;2023-02-01T13:19:45;5.00;99.90
7232;DHT22;3657;49.630;11.018;2023-02-01T13:22:27;5.00;99.90
7232;DHT22;3657;49.630;11.018;2023-02-01T13:24:59;5.10;99.90
7232;DHT22;3657;49.630;11.018;2023-02-01T13:27:28;5.10;99.90
7232;DHT22;3657;49.630;11.018;2023-02-01T13:29:58;5.10;99.90
7232;DHT22;3657;49.630;11.018;2023-02-01T13:32:47;5.10;99.90
7232;DHT22;3657;49.630;11.018;2023-02-01T13:35:33;5.10;99.90
7232;DHT22;3657;49.630;11.018;2023-02-01T13:38:22;5.10;99.90
7232;DHT22;3657;49.630;11.018;2023-02-01T13:41:07;5.10;99.90
7232;DHT22;3657;49.630;11.018;2023-02-01T13:43:39;5.10;99.90
7232;DHT22;3657;49.630;11.018;2023-02-01T13:46:09;5.10;99.90
7232;DHT22;3657;49.630;11.018;2023-02-01T13:48:41;5.10;99.90
7232;DHT22;3657;49.630;11.018;2023-02-01T13:51:13;5.10;99.90
7232;DHT22;3657;49.630;11.018;2023-02-01T13:53:45;5.10;99.90
7232;DHT22;3657;49.630;11.018;2023-02-01T13:56:16;5.10;99.90
7232;DHT22;3657;49.630;11.018;2023-02-01T13:58:44;5.10;99.90
7232;DHT22;3657;49.630;11.018;2023-02-01T14:01:34;5.10;99.90
7232;DHT22;3657;49.630;11.018;2023-02-01T14:04:04;5.10;99.90
7232;DHT22;3657;49.630;11.018;2023-02-01T14:06:43;5.10;99.90
7232;DHT22;3657;49.630;11.018;2023-02-01T14:11:55;5.10;99.90
7232;DHT22;3657;49.630;11.018;2023-02-01T14:14:48;5.10;99.90
7232;DHT22;3657;49.630;11.018;2023-02-01T14:17:36;5.10;99.90
7232;DHT22;3657;49.630;11.018;2023-02-01T14:23:03;5.10;99.90
7232;DHT22;3657;49.630;11.018;2023-02-01T14:25:32;5.10;99.90
7232;DHT22;3657;49.630;11.018;2023-02-01T14:28:01;5.00;99.90
7232;DHT22;3657;49.630;11.018;2023-02-01T14:30:30;5.00;99.90
7232;DHT22;3657;49.630;11.018;2023-02-01T14:32:57;5.00;99.90
7232;DHT22;3657;49.630;11.018;2023-02-01T14:35:26;5.00;99.90
7232;DHT22;3657;49.630;11.018;2023-02-01T14:37:59;5.00;99.90
7232;DHT22;3657;49.630;11.018;2023-02-01T14:40:28;5.00;99.90
7232;DHT22;3657;49.630;11.018;2023-02-01T14:42:55;5.00;99.90
7232;DHT22;3657;49.630;11.018;2023-02-01T14:45:49;5.00;99.90
7232;DHT22;3657;49.630;11.018;2023-02-01T14:48:43;5.00;99.90
7232;DHT22;3657;49.630;11.018;2023-02-01T14:51:13;4.90;99.90
7232;DHT22;3657;49.630;11.018;2023-02-01T14:53:40;4.90;99.90
7232;DHT22;3657;49.630;11.018;2023-02-01T14:56:13;4.90;99.90
7232;DHT22;3657;49.630;11.018;2023-02-01T14:58:42;4.90;99.90
7232;DHT22;3657;49.630;11.018;2023-02-01T15:01:21;4.90;99.90
7232;DHT22;3657;49.630;11.018;2023-02-01T15:03:56;4.90;99.90
7232;DHT22;3657;49.630;11.018;2023-02-01T15:06:26;4.90;99.90
7232;DHT22;3657;49.630;11.018;2023-02-01T15:08:56;4.90;99.90
7232;DHT22;3657;49.630;11.018;2023-02-01T15:11:24;4.90;99.90
7232;DHT22;3657;49.630;11.018;2023-02-01T15:13:52;4.90;99.90
7232;DHT22;3657;49.630;11.018;2023-02-01T15:16:23;4.90;99.90
7232;DHT22;3657;49.630;11.018;2023-02-01T15:18:51;4.90;99.90
7232;DHT22;3657;49.630;11.018;2023-02-01T15:21:42;4.90;99.90
7232;DHT22;3657;49.630;11.018;2023-02-01T15:24:11;4.90;99.90
7232;DHT22;3657;49.630;11.018;2023-02-01T15:26:38;4.90;99.90
7232;DHT22;3657;49.630;11.018;2023-02-01T15:29:05;4.80;99.90
7232;DHT22;3657;49.630;11.018;2023-02-01T15:31:38;4.90;99.90
7232;DHT22;3657;49.630;11.018;2023-02-01T15:34:06;4.80;99.90
7232;DHT22;3657;49.630;11.018;2023-02-01T15:36:33;4.80;99.90
7232;DHT22;3657;49.630;11.018;2023-02-01T15:39:16;4.80;99.90
7232;DHT22;3657;49.630;11.018;2023-02-01T15:41:47;4.80;99.90
7232;DHT22;3657;49.630;11.018;2023-02-01T15:44:19;4.80;99.90
7232;DHT22;3657;49.630;11.018;2023-02-01T15:46:49;4.80;99.90
7232;DHT22;3657;49.630;11.018;2023-02-01T15:49:20;4.80;99.90
7232;DHT22;3657;49.630;11.018;2023-02-01T15:51:50;4.80;99.90
7232;DHT22;3657;49.630;11.018;2023-02-01T15:54:20;4.70;99.90
7232;DHT22;3657;49.630;11.018;2023-02-01T15:56:51;4.80;99.90
7232;DHT22;3657;49.630;11.018;2023-02-01T15:59:21;4.70;99.90
7232;DHT22;3657;49.630;11.018;2023-02-01T16:01:49;4.70;99.90
7232;DHT22;3657;49.630;11.018;2023-02-01T16:04:19;4.70;99.90
7232;DHT22;3657;49.630;11.018;2023-02-01T16:06:49;4.70;99.90
7232;DHT22;3657;49.630;11.018;2023-02-01T16:09:17;4.70;99.90
7232;DHT22;3657;49.630;11.018;2023-02-01T16:11:52;4.70;99.90
7232;DHT22;3657;49.630;11.018;2023-02-01T16:14:20;4.70;99.90
7232;DHT22;3657;49.630;11.018;2023-02-01T16:16:46;4.70;99.90
7232;DHT22;3657;49.630;11.018;2023-02-01T16:19:14;4.70;99.90
7232;DHT22;3657;49.630;11.018;2023-02-01T16:21:41;4.60;99.90
7232;DHT22;3657;49.630;11.018;2023-02-01T16:24:08;4.60;99.90
7232;DHT22;3657;49.630;11.018;2023-02-01T16:26:35;4.60;99.90
7232;DHT22;3657;49.630;11.018;2023-02-01T16:29:02;4.60;99.90
7232;DHT22;3657;49.630;11.018;2023-02-01T16:31:33;4.60;99.90
7232;DHT22;3657;49.630;11.018;2023-02-01T16:34:00;4.60;99.90
7232;DHT22;3657;49.630;11.018;2023-02-01T16:36:28;4.60;99.90
7232;DHT22;3657;49.630;11.018;2023-02-01T16:38:55;4.60;99.90